Time;durP1;ratioP1;P1;durP2;ratioP2;P2;SDS_P1;SDS_P2;PMS_P1;PMS_P2;Temp;Humidity;BMP_temperature;BMP_pressure;BME280_temperature;BME280_humidity;BME280_pressure;Samples;Min_cycle;Max_cycle;Signal;HPM_P1;HPM_P2
2022/10/14 00:00:46;;;;;;;11.88;2.30;;;;;;;12.78;64.38;94962.25;5098868;28;20625;-71
2022/10/14 00:03:13;;;;;;;2.10;1.52;;;;;;;12.75;64.54;94963.72;5107776;28;20238;-71
2022/10/14 00:05:42;;;;;;;1.98;1.27;;;;;;;12.70;65.05;94968.59;5104988;28;20262;-71
2022/10/14 00:08:09;;;;;;;1.27;1.05;;;;;;;12.65;65.37;94969.56;5101176;28;20209;-72
2022/10/14 00:10:39;;;;;;;2.78;1.85;;;;;;;12.60;65.65;94961.59;5107064;28;20210;-71
2022/10/14 00:13:06;;;;;;;2.78;1.70;;;;;;;12.57;66.08;94950.63;5109073;28;20233;-71
2022/10/14 00:15:38;;;;;;;2.08;1.17;;;;;;;12.56;66.79;94960.69;5098567;28;20447;-72
2022/10/14 00:18:04;;;;;;;1.60;1.10;;;;;;;12.52;67.19;94948.91;5101895;28;20202;-70
2022/10/14 00:20:31;;;;;;;2.05;1.60;;;;;;;12.49;67.63;94948.75;5089400;28;20295;-72
2022/10/14 00:22:59;;;;;;;3.45;1.23;;;;;;;12.48;67.72;94950.66;5092902;28;20199;-72
2022/10/14 00:25:27;;;;;;;2.40;1.13;;;;;;;12.47;68.07;94951.78;5102055;28;20852;-71
2022/10/14 00:27:54;;;;;;;2.00;1.20;;;;;;;12.48;67.93;94941.72;5109013;28;20213;-71
2022/10/14 00:30:21;;;;;;;5.47;1.15;;;;;;;12.46;68.09;94948.28;5109617;28;20206;-71
2022/10/14 00:32:47;;;;;;;2.90;1.45;;;;;;;12.46;68.37;94945.56;5082598;28;20257;-71
2022/10/14 00:35:14;;;;;;;1.52;1.17;;;;;;;12.45;68.45;94943.97;5094052;28;20197;-71
2022/10/14 00:37:41;;;;;;;1.25;0.95;;;;;;;12.46;68.53;94944.78;5088702;28;20230;-72
2022/10/14 00:40:10;;;;;;;0.98;0.85;;;;;;;12.41;68.77;94947.69;5102358;28;20209;-71
2022/10/14 00:42:37;;;;;;;8.43;1.60;;;;;;;12.40;68.58;94946.13;5109404;28;20270;-76
2022/10/14 00:45:11;;;;;;;1.23;0.98;;;;;;;12.43;68.65;94945.44;5108911;28;20233;-71
2022/10/14 00:47:39;;;;;;;0.63;0.50;;;;;;;12.33;69.19;94943.91;5097406;28;20205;-70
2022/10/14 00:50:05;;;;;;;1.35;0.90;;;;;;;12.30;69.43;94941.06;5109522;28;20252;-71
2022/10/14 00:52:32;;;;;;;7.57;1.17;;;;;;;12.30;69.57;94941.06;5101038;28;20665;-71
2022/10/14 00:55:03;;;;;;;1.25;1.10;;;;;;;12.25;69.75;94941.25;5090323;28;20232;-71
2022/10/14 00:57:32;;;;;;;2.33;1.13;;;;;;;12.24;69.97;94945.09;5109161;28;20737;-72
2022/10/14 01:00:04;;;;;;;1.40;0.85;;;;;;;12.22;70.16;94928.34;5109565;28;20201;-71
2022/10/14 01:02:31;;;;;;;1.35;0.88;;;;;;;12.22;69.80;94933.75;5108845;28;20367;-71
2022/10/14 01:04:58;;;;;;;0.70;0.70;;;;;;;12.21;70.19;94927.53;5109244;28;20278;-71
2022/10/14 01:07:34;;;;;;;1.52;1.10;;;;;;;12.19;69.86;94928.97;5109130;28;20237;-71
2022/10/14 01:10:07;;;;;;;1.27;0.90;;;;;;;12.17;70.25;94920.38;5104545;28;20554;-71
2022/10/14 01:12:46;;;;;;;1.60;1.35;;;;;;;12.16;70.25;94922.31;5088711;28;20210;-71
2022/10/14 01:15:21;;;;;;;0.50;0.50;;;;;;;12.18;70.38;94911.09;5088545;28;20260;-71
2022/10/14 01:17:57;;;;;;;1.98;1.20;;;;;;;12.19;70.23;94918.13;5105198;28;20205;-71
2022/10/14 01:20:41;;;;;;;1.33;0.98;;;;;;;12.21;70.01;94896.88;5109626;28;20240;-71
2022/10/14 01:23:27;;;;;;;1.95;1.13;;;;;;;12.20;70.16;94892.56;5093754;28;20253;-70
2022/10/14 01:26:02;;;;;;;2.05;1.38;;;;;;;12.14;70.50;94900.13;5092667;28;20226;-71
2022/10/14 01:28:41;;;;;;;1.95;1.10;;;;;;;12.14;70.54;94899.31;5103223;28;20193;-71
2022/10/14 01:31:13;;;;;;;1.75;1.20;;;;;;;12.13;70.70;94897.72;5112562;28;20197;-72
2022/10/14 01:33:44;;;;;;;1.40;0.88;;;;;;;12.15;70.64;94885.41;5112553;28;20733;-71
2022/10/14 01:36:18;;;;;;;0.80;0.70;;;;;;;12.12;70.70;94886.06;5112217;28;20297;-72
2022/10/14 01:38:49;;;;;;;1.75;1.10;;;;;;;12.03;71.23;94883.41;5111900;28;20226;-71
2022/10/14 01:41:20;;;;;;;1.20;1.08;;;;;;;12.02;71.62;94892.69;5111955;28;20548;-71
2022/10/14 01:43:50;;;;;;;1.05;0.82;;;;;;;12.00;71.93;94884.09;5112043;28;20258;-73
2022/10/14 01:46:21;;;;;;;1.52;0.90;;;;;;;11.96;72.44;94885.88;5112566;28;20305;-71
2022/10/14 01:48:52;;;;;;;3.47;1.65;;;;;;;11.90;73.05;94889.88;5095407;28;20624;-73
2022/10/14 01:51:23;;;;;;;1.17;0.93;;;;;;;11.79;73.46;94877.81;5103560;28;20588;-71
2022/10/14 01:53:54;;;;;;;1.75;1.15;;;;;;;11.87;73.62;94882.41;5111740;28;20649;-71
2022/10/14 01:56:21;;;;;;;1.00;0.82;;;;;;;11.85;73.97;94884.66;5112199;28;20274;-72
2022/10/14 01:58:50;;;;;;;2.42;0.90;;;;;;;11.85;74.24;94887.38;5112492;28;20456;-71
2022/10/14 02:01:18;;;;;;;0.70;0.68;;;;;;;11.87;73.95;94884.34;5112238;28;20262;-75
2022/10/14 02:03:47;;;;;;;2.35;0.82;;;;;;;11.83;74.33;94905.91;5105729;28;20230;-70
2022/10/14 02:06:20;;;;;;;1.15;0.85;;;;;;;11.84;74.08;94885.78;5091770;28;20706;-71
2022/10/14 02:09:02;;;;;;;3.00;0.82;;;;;;;11.79;74.96;94883.25;5092608;28;20266;-71
2022/10/14 02:11:35;;;;;;;0.68;0.60;;;;;;;11.83;74.65;94889.63;5091983;28;20281;-72
2022/10/14 02:14:12;;;;;;;4.40;1.10;;;;;;;11.76;74.91;94883.91;5092517;28;20195;-72
2022/10/14 02:16:43;;;;;;;1.48;1.00;;;;;;;11.76;75.22;94883.91;5078482;28;20259;-72
2022/10/14 02:19:23;;;;;;;1.85;1.05;;;;;;;11.73;75.13;94884.53;5092242;28;20194;-71
2022/10/14 02:21:57;;;;;;;0.80;0.80;;;;;;;11.71;75.74;94894.94;5091992;28;20248;-71
2022/10/14 02:24:29;;;;;;;1.58;1.10;;;;;;;11.70;76.11;94893.34;5092005;28;20248;-72
2022/10/14 02:27:00;;;;;;;0.60;0.60;;;;;;;11.72;75.94;94882.94;5092189;28;20199;-72
2022/10/14 02:29:29;;;;;;;0.63;0.60;;;;;;;11.71;76.02;94889.50;5092254;28;20205;-72
2022/10/14 02:31:59;;;;;;;1.30;1.05;;;;;;;11.72;75.97;94883.75;5091412;28;20195;-72
2022/10/14 02:34:26;;;;;;;0.70;0.70;;;;;;;11.75;75.94;94887.72;5104695;28;20730;-72
2022/10/14 02:36:54;;;;;;;0.75;0.75;;;;;;;11.74;76.09;94878.00;5090988;28;20595;-71
2022/10/14 02:39:29;;;;;;;1.08;0.90;;;;;;;11.68;76.46;94903.72;5091875;28;20291;-72
2022/10/14 02:41:55;;;;;;;1.15;1.00;;;;;;;11.66;76.58;94873.41;5091899;28;20198;-71
2022/10/14 02:44:22;;;;;;;2.60;1.15;;;;;;;11.66;76.68;94878.81;5091551;28;20199;-71
2022/10/14 02:46:49;;;;;;;1.45;0.82;;;;;;;11.61;77.00;94879.03;5105429;28;20233;-71
2022/10/14 02:49:18;;;;;;;2.60;1.35;;;;;;;11.57;77.15;94875.38;5111740;28;20237;-72
2022/10/14 02:51:44;;;;;;;0.55;0.55;;;;;;;11.58;77.32;94874.25;5111102;28;20258;-71
2022/10/14 02:54:11;;;;;;;0.75;0.75;;;;;;;11.59;77.29;94870.41;5111139;28;20229;-70
2022/10/14 02:56:38;;;;;;;1.15;1.05;;;;;;;11.58;77.50;94866.91;5095613;28;20635;-71
2022/10/14 02:59:05;;;;;;;0.98;0.90;;;;;;;11.54;77.42;94859.75;5098731;28;20198;-71
2022/10/14 03:01:32;;;;;;;1.10;0.80;;;;;;;11.57;77.64;94864.53;5096373;28;20628;-71
2022/10/14 03:03:59;;;;;;;3.42;1.00;;;;;;;11.57;77.59;94849.03;5088331;28;20222;-75
2022/10/14 03:06:27;;;;;;;0.63;0.63;;;;;;;11.61;77.47;94854.59;5105510;28;20331;-71
2022/10/14 03:08:54;;;;;;;0.80;0.80;;;;;;;11.56;77.84;94862.94;5107282;28;20208;-70
2022/10/14 03:11:20;;;;;;;1.05;0.57;;;;;;;11.55;77.86;94859.41;5110458;28;20298;-71
2022/10/14 03:13:47;;;;;;;1.65;1.13;;;;;;;11.49;78.34;94852.56;5107529;28;20248;-71
2022/10/14 03:16:14;;;;;;;1.00;0.90;;;;;;;11.52;77.97;94856.56;5096981;28;20262;-71
2022/10/14 03:18:40;;;;;;;1.70;1.20;;;;;;;11.52;78.17;94856.56;5110352;28;20686;-71
2022/10/14 03:21:07;;;;;;;1.15;0.90;;;;;;;11.55;77.99;94867.56;5097188;28;20195;-71
2022/10/14 03:23:35;;;;;;;0.93;0.82;;;;;;;11.57;78.12;94861.81;5090323;28;20463;-70
2022/10/14 03:26:02;;;;;;;1.52;1.42;;;;;;;11.56;78.46;94852.06;5108070;28;20637;-71
2022/10/14 03:28:28;;;;;;;2.05;1.00;;;;;;;11.55;78.59;94845.06;5092963;28;20274;-70
2022/10/14 03:30:55;;;;;;;1.27;1.08;;;;;;;11.51;78.77;94844.91;5107802;28;20488;-71
2022/10/14 03:33:22;;;;;;;1.58;1.33;;;;;;;11.49;78.96;94851.78;5110350;28;20250;-70
2022/10/14 03:35:48;;;;;;;1.70;1.23;;;;;;;11.51;79.02;94849.53;5110554;28;20205;-71
2022/10/14 03:38:15;;;;;;;2.85;1.70;;;;;;;11.49;79.52;94851.78;5108981;28;20849;-72
2022/10/14 03:40:44;;;;;;;1.77;1.30;;;;;;;11.45;79.54;94851.66;5109944;28;20279;-70
2022/10/14 03:43:11;;;;;;;1.27;1.05;;;;;;;11.45;79.97;94856.28;5110359;28;20664;-71
2022/10/14 03:45:37;;;;;;;0.70;0.70;;;;;;;11.45;79.94;94864.44;5109470;28;20229;-70
2022/10/14 03:48:04;;;;;;;2.33;0.68;;;;;;;11.39;80.34;94864.59;5109506;28;20263;-71
2022/10/14 03:50:31;;;;;;;1.10;1.00;;;;;;;11.40;80.46;94860.78;5110455;28;20292;-71
2022/10/14 03:52:58;;;;;;;12.13;1.35;;;;;;;11.36;80.37;94854.41;5110331;28;20198;-71
2022/10/14 03:55:24;;;;;;;1.20;0.85;;;;;;;11.36;80.41;94853.59;5110279;28;20206;-70
2022/10/14 03:57:53;;;;;;;2.00;1.30;;;;;;;11.45;80.30;94857.09;5109867;28;20723;-71
2022/10/14 04:00:20;;;;;;;1.17;1.08;;;;;;;11.45;80.24;94850.88;5110157;28;20212;-70
2022/10/14 04:02:46;;;;;;;1.42;1.20;;;;;;;11.43;80.57;94847.69;5109403;28;20282;-70
2022/10/14 04:05:13;;;;;;;2.13;1.85;;;;;;;11.42;80.72;94846.09;5096987;28;20785;-73
2022/10/14 04:07:40;;;;;;;4.80;2.08;;;;;;;11.45;80.77;94851.66;5089215;28;20202;-71
2022/10/14 04:10:08;;;;;;;1.63;1.40;;;;;;;11.42;80.93;94840.66;5104126;28;20258;-70
2022/10/14 04:12:35;;;;;;;1.48;1.30;;;;;;;11.38;81.05;94851.38;5088738;28;20195;-69
2022/10/14 04:15:03;;;;;;;2.03;1.80;;;;;;;11.35;81.31;94847.38;5089472;28;20194;-69
2022/10/14 04:17:29;;;;;;;3.22;1.77;;;;;;;11.34;81.42;94840.38;5087864;28;20191;-70
2022/10/14 04:19:56;;;;;;;1.98;1.75;;;;;;;11.33;81.38;94838.81;5088093;28;20260;-69
2022/10/14 04:22:23;;;;;;;2.67;1.63;;;;;;;11.31;81.62;94829.41;5091914;28;20707;-69
2022/10/14 04:24:50;;;;;;;2.25;1.88;;;;;;;11.31;81.66;94834.81;5102434;28;20220;-70
2022/10/14 04:27:17;;;;;;;1.80;1.65;;;;;;;11.33;81.59;94836.09;5089210;28;20309;-70
2022/10/14 04:29:43;;;;;;;1.85;1.63;;;;;;;11.32;81.55;94820.94;5081262;28;20232;-74
2022/10/14 04:32:11;;;;;;;0.90;0.90;;;;;;;11.32;81.63;94834.50;5088530;28;20206;-71
2022/10/14 04:34:38;;;;;;;4.47;2.00;;;;;;;11.32;81.67;94831.00;5099566;28;20207;-72
2022/10/14 04:37:05;;;;;;;2.40;2.00;;;;;;;11.30;81.62;94834.03;5083070;28;20671;-73
2022/10/14 04:39:33;;;;;;;1.98;1.50;;;;;;;11.30;81.63;94827.81;5102977;28;20713;-72
2022/10/14 04:41:59;;;;;;;4.65;2.40;;;;;;;11.29;81.45;94827.00;5101266;28;20289;-74
2022/10/14 04:44:26;;;;;;;2.88;2.00;;;;;;;11.29;81.51;94827.00;5097074;28;20608;-72
2022/10/14 04:46:53;;;;;;;2.22;1.90;;;;;;;11.27;81.46;94837.38;5108989;28;20269;-72
2022/10/14 04:49:21;;;;;;;1.92;1.50;;;;;;;11.29;81.29;94832.44;5104870;28;20258;-72
2022/10/14 04:51:47;;;;;;;2.10;1.38;;;;;;;11.30;81.04;94825.09;5108825;28;20205;-71
2022/10/14 04:54:14;;;;;;;1.50;1.27;;;;;;;11.29;80.58;94827.00;5091154;28;20198;-69
2022/10/14 04:56:41;;;;;;;3.90;1.95;;;;;;;11.28;80.41;94809.16;5105831;28;20205;-72
2022/10/14 04:59:08;;;;;;;2.17;1.52;;;;;;;11.30;80.49;94817.75;5111189;28;20197;-70
2022/10/14 05:01:34;;;;;;;1.75;1.65;;;;;;;11.28;80.47;94813.78;5115271;28;20228;-71
2022/10/14 05:04:01;;;;;;;1.73;1.35;;;;;;;11.29;80.14;94818.88;5115792;28;20602;-73
2022/10/14 05:06:29;;;;;;;3.50;1.67;;;;;;;11.36;79.74;94813.72;5115327;28;20275;-73
2022/10/14 05:08:56;;;;;;;3.22;1.58;;;;;;;11.38;79.66;94816.09;5101450;28;20346;-72
2022/10/14 05:11:23;;;;;;;0.73;0.73;;;;;;;11.36;79.48;94811.00;5097227;28;20206;-71
2022/10/14 05:13:49;;;;;;;2.35;1.58;;;;;;;11.37;79.48;94814.50;5114981;28;20205;-73
2022/10/14 05:16:16;;;;;;;2.90;2.10;;;;;;;11.42;79.51;94808.13;5101820;28;20193;-70
2022/10/14 05:18:43;;;;;;;2.33;1.48;;;;;;;11.43;78.85;94815.13;5110615;28;20251;-71
2022/10/14 05:21:09;;;;;;;1.77;1.42;;;;;;;11.47;78.49;94816.88;5113751;28;20812;-71
2022/10/14 05:23:37;;;;;;;2.00;1.65;;;;;;;11.52;77.73;94811.22;5096438;28;20229;-70
2022/10/14 05:26:04;;;;;;;1.77;1.55;;;;;;;11.58;77.28;94804.50;5097938;28;20227;-73
2022/10/14 05:28:31;;;;;;;1.70;1.48;;;;;;;11.63;77.17;94806.22;5105702;28;20606;-72
2022/10/14 05:31:01;;;;;;;2.60;2.17;;;;;;;11.67;77.12;94813.38;5111245;28;20248;-71
2022/10/14 05:33:28;;;;;;;5.82;2.50;;;;;;;11.78;77.00;94810.28;5095870;28;20271;-71
2022/10/14 05:35:55;;;;;;;1.38;1.23;;;;;;;11.89;76.08;94817.72;5095902;28;20194;-71
2022/10/14 05:38:21;;;;;;;0.77;0.77;;;;;;;11.96;75.52;94796.28;5095469;28;20878;-73
2022/10/14 05:40:57;;;;;;;1.75;1.40;;;;;;;12.07;75.37;94802.88;5109142;28;20202;-73
2022/10/14 05:43:24;;;;;;;1.83;1.17;;;;;;;12.24;74.83;94817.44;5094068;28;20197;-74
2022/10/14 05:45:51;;;;;;;2.65;1.63;;;;;;;12.33;74.86;94807.28;5091995;28;20198;-75
2022/10/14 05:48:18;;;;;;;1.63;1.40;;;;;;;12.35;74.66;94815.91;5094393;28;20191;-73
2022/10/14 05:50:45;;;;;;;2.03;1.70;;;;;;;12.33;74.48;94815.44;5095396;28;20198;-71
2022/10/14 05:53:12;;;;;;;2.55;1.98;;;;;;;12.42;74.84;94821.59;5095257;28;20198;-74
2022/10/14 05:55:40;;;;;;;2.03;1.33;;;;;;;12.46;74.20;94826.00;5095427;28;20206;-74
2022/10/14 05:58:09;;;;;;;6.70;1.67;;;;;;;12.38;74.25;94829.63;5108351;28;20205;-72
2022/10/14 06:00:36;;;;;;;2.05;1.23;;;;;;;12.36;74.47;94822.94;5095449;28;20205;-71
2022/10/14 06:03:03;;;;;;;2.95;1.95;;;;;;;12.31;74.15;94833.97;5094737;28;20612;-72
2022/10/14 06:05:31;;;;;;;1.73;1.13;;;;;;;12.30;74.17;94837.84;5101796;28;20205;-72
2022/10/14 06:07:58;;;;;;;2.22;1.67;;;;;;;12.30;73.73;94835.91;5099311;28;20259;-70
2022/10/14 06:10:26;;;;;;;2.22;1.50;;;;;;;12.32;73.92;94841.00;5089140;28;20186;-70
2022/10/14 06:12:54;;;;;;;2.67;1.00;;;;;;;12.32;73.42;94841.00;5090755;28;20191;-71
2022/10/14 06:15:23;;;;;;;2.10;1.73;;;;;;;12.54;72.29;94842.59;5089627;28;20203;-71
2022/10/14 06:17:50;;;;;;;4.72;2.22;;;;;;;12.52;72.81;94845.63;5088957;28;20331;-71
2022/10/14 06:20:18;;;;;;;11.43;2.17;;;;;;;12.61;71.78;94854.50;5092227;28;20607;-70
2022/10/14 06:22:46;;;;;;;2.03;1.70;;;;;;;12.78;70.96;94848.88;5094181;28;20222;-70
2022/10/14 06:25:15;;;;;;;3.08;1.70;;;;;;;12.80;70.47;94857.50;5091249;28;20281;-71
2022/10/14 06:27:43;;;;;;;1.55;1.27;;;;;;;12.96;69.91;94854.16;5095496;28;20769;-71
2022/10/14 06:30:12;;;;;;;13.77;2.20;;;;;;;12.87;69.54;94850.72;5100782;28;20727;-70
2022/10/14 06:32:42;;;;;;;4.10;2.40;;;;;;;13.12;69.13;94855.06;5110367;28;20573;-70
2022/10/14 06:35:10;;;;;;;2.95;2.08;;;;;;;13.20;68.61;94862.38;5110149;28;20317;-71
2022/10/14 06:37:38;;;;;;;3.47;2.20;;;;;;;13.18;69.24;94859.19;5095211;28;20271;-71
2022/10/14 06:40:07;;;;;;;2.03;1.40;;;;;;;13.24;68.29;94859.78;5096762;28;20583;-73
2022/10/14 06:42:35;;;;;;;5.72;2.22;;;;;;;13.32;68.75;94856.94;5100104;28;20194;-71
2022/10/14 06:45:03;;;;;;;1.30;1.05;;;;;;;13.40;67.56;94857.97;5091973;28;20252;-71
2022/10/14 06:47:31;;;;;;;2.78;1.50;;;;;;;13.38;67.94;94860.25;5089530;28;20214;-70
2022/10/14 06:50:00;;;;;;;4.70;2.30;;;;;;;13.50;69.12;94857.53;5090758;28;20210;-71
2022/10/14 06:52:28;;;;;;;1.92;1.48;;;;;;;13.40;68.60;94850.59;5097147;28;20758;-70
2022/10/14 06:54:56;;;;;;;2.42;1.40;;;;;;;13.32;69.37;94845.25;5110052;28;20241;-70
2022/10/14 06:57:23;;;;;;;1.75;1.45;;;;;;;13.45;68.98;94839.50;5089910;28;20359;-69
2022/10/14 06:59:51;;;;;;;1.73;1.35;;;;;;;13.14;69.39;94842.75;5090697;28;20329;-72
2022/10/14 07:02:19;;;;;;;2.30;1.70;;;;;;;13.16;69.71;94854.09;5086741;28;20734;-71
2022/10/14 07:04:47;;;;;;;7.95;2.30;;;;;;;13.44;69.40;94848.78;5082690;28;20674;-71
2022/10/14 07:07:16;;;;;;;1.98;1.55;;;;;;;13.41;68.71;94860.34;5109370;28;20240;-72
2022/10/14 07:09:44;;;;;;;1.25;1.15;;;;;;;13.37;69.02;94850.50;5093089;28;20198;-70
2022/10/14 07:12:13;;;;;;;1.83;1.48;;;;;;;13.32;68.81;94856.94;5097680;28;20237;-72
2022/10/14 07:14:40;;;;;;;3.78;2.15;;;;;;;13.26;68.66;94839.25;5105763;28;20206;-72
2022/10/14 07:17:09;;;;;;;5.38;2.80;;;;;;;13.40;68.69;94847.88;5098902;28;20205;-72
2022/10/14 07:19:37;;;;;;;6.25;1.80;;;;;;;13.47;67.18;94847.31;5091213;28;20202;-72
2022/10/14 07:22:05;;;;;;;2.15;1.70;;;;;;;13.61;66.85;94846.97;5091892;28;20290;-72
2022/10/14 07:24:35;;;;;;;2.28;1.83;;;;;;;13.77;65.74;94845.16;5093496;28;20237;-71
2022/10/14 07:27:03;;;;;;;4.22;3.10;;;;;;;13.66;66.02;94844.03;5109336;28;20237;-72
2022/10/14 07:29:31;;;;;;;3.75;2.20;;;;;;;13.48;65.07;94857.06;5109872;28;20652;-73
2022/10/14 07:32:00;;;;;;;9.90;2.35;;;;;;;13.57;65.30;94846.06;5109273;28;20223;-72
2022/10/14 07:34:28;;;;;;;7.38;2.28;;;;;;;13.77;64.96;94845.16;5109399;28;20268;-72
2022/10/14 07:36:56;;;;;;;7.53;2.88;;;;;;;13.69;63.95;94846.03;5109041;28;20302;-72
2022/10/14 07:39:24;;;;;;;1.25;1.15;;;;;;;13.80;64.17;94844.47;5109385;28;20206;-72
2022/10/14 07:41:54;;;;;;;2.20;1.70;;;;;;;13.69;65.04;94843.31;5109592;28;20208;-71
2022/10/14 07:44:22;;;;;;;2.90;1.48;;;;;;;13.72;64.06;94842.66;5109084;28;20607;-72
2022/10/14 07:46:50;;;;;;;3.97;2.22;;;;;;;13.80;63.94;94839.78;5108606;28;20298;-72
2022/10/14 07:49:20;;;;;;;3.92;1.60;;;;;;;13.74;63.16;94848.56;5108693;28;20216;-71
2022/10/14 07:51:49;;;;;;;1.73;1.20;;;;;;;13.81;63.95;94846.81;5107853;28;20206;-72
2022/10/14 07:54:19;;;;;;;1.67;1.20;;;;;;;13.75;63.59;94847.41;5088262;28;20299;-72
2022/10/14 07:56:48;;;;;;;2.38;1.67;;;;;;;13.68;64.54;94841.75;5103500;28;20209;-72
2022/10/14 07:59:19;;;;;;;2.53;1.73;;;;;;;13.79;63.44;94842.88;5108598;28;20668;-72
2022/10/14 08:01:48;;;;;;;2.00;1.45;;;;;;;13.95;63.59;94832.84;5108922;28;20608;-72
2022/10/14 08:04:16;;;;;;;3.55;1.27;;;;;;;13.96;63.77;94850.78;5108717;28;20209;-72
2022/10/14 08:06:52;;;;;;;1.95;1.55;;;;;;;14.20;63.28;94845.31;5108161;28;20225;-71
2022/10/14 08:09:21;;;;;;;14.98;6.18;;;;;;;14.50;61.28;94837.59;5108810;28;20232;-72
2022/10/14 08:11:49;;;;;;;3.95;2.22;;;;;;;14.52;61.03;94837.25;5108375;28;20266;-71
2022/10/14 08:14:19;;;;;;;2.08;1.50;;;;;;;14.58;60.53;94830.44;5108320;28;20201;-72
2022/10/14 08:16:49;;;;;;;4.22;1.88;;;;;;;14.67;59.42;94839.25;5095744;28;20201;-72
2022/10/14 08:19:18;;;;;;;1.58;1.38;;;;;;;14.58;59.79;94835.88;5107736;28;20198;-71
2022/10/14 08:21:46;;;;;;;3.83;2.47;;;;;;;14.85;59.39;94851.44;5099363;28;20218;-71
2022/10/14 08:24:14;;;;;;;2.28;1.40;;;;;;;14.75;58.72;94845.69;5090044;28;20203;-72
2022/10/14 08:26:50;;;;;;;2.78;1.30;;;;;;;14.75;58.54;94846.47;5107390;28;20664;-71
2022/10/14 08:29:22;;;;;;;1.90;1.15;;;;;;;14.70;58.99;94849.44;5108084;28;20284;-72
2022/10/14 08:31:52;;;;;;;1.60;1.50;;;;;;;14.79;59.54;94844.63;5107313;28;20205;-72
2022/10/14 08:34:23;;;;;;;1.30;1.20;;;;;;;14.57;59.55;94845.19;5107571;28;20205;-71
2022/10/14 08:36:51;;;;;;;1.42;1.33;;;;;;;14.66;58.72;94842.31;5107746;28;20228;-72
2022/10/14 08:39:22;;;;;;;2.63;1.85;;;;;;;14.91;59.51;94844.56;5108234;28;20285;-71
2022/10/14 08:42:18;;;;;;;6.55;2.88;;;;;;;14.87;58.38;94837.44;5108838;28;20286;-72
2022/10/14 08:44:52;;;;;;;2.60;1.35;;;;;;;15.04;56.36;94848.00;5108418;28;20204;-72
2022/10/14 08:47:25;;;;;;;1.23;1.10;;;;;;;15.16;55.16;94850.69;5107225;28;20861;-72
2022/10/14 08:50:03;;;;;;;1.90;1.23;;;;;;;15.03;55.14;94856.56;5107361;28;20197;-71
2022/10/14 08:52:35;;;;;;;2.92;1.25;;;;;;;15.02;55.70;94854.97;5107699;28;20655;-71
2022/10/14 08:55:15;;;;;;;2.67;1.23;;;;;;;15.18;55.37;94858.50;5107714;28;20204;-71
2022/10/14 08:57:51;;;;;;;1.77;1.20;;;;;;;15.36;55.57;94858.97;5107177;28;20279;-72
2022/10/14 09:00:22;;;;;;;1.48;1.00;;;;;;;15.38;54.96;94852.00;5088573;28;20593;-72
2022/10/14 09:02:53;;;;;;;3.20;2.05;;;;;;;15.60;54.18;94843.22;5087850;28;20234;-73
2022/10/14 09:05:24;;;;;;;1.58;1.10;;;;;;;15.67;54.14;94842.59;5087934;28;20251;-71
2022/10/14 09:07:54;;;;;;;3.10;1.45;;;;;;;15.63;55.30;94852.63;5100683;28;20233;-72
2022/10/14 09:10:32;;;;;;;1.33;1.10;;;;;;;15.57;55.18;94843.94;5107816;28;20689;-71
2022/10/14 09:13:08;;;;;;;2.47;1.67;;;;;;;15.74;54.76;94844.69;5108092;28;20232;-71
2022/10/14 09:15:42;;;;;;;2.15;1.00;;;;;;;16.06;52.15;94835.28;5096405;28;20201;-72
2022/10/14 09:18:23;;;;;;;3.28;1.38;;;;;;;15.90;51.44;94835.31;5106273;28;20205;-71
2022/10/14 09:20:54;;;;;;;0.82;0.82;;;;;;;15.86;52.61;94828.97;5107340;28;20286;-71
2022/10/14 09:23:24;;;;;;;1.10;0.98;;;;;;;15.93;52.83;94833.84;5089116;28;20222;-71
2022/10/14 09:25:58;;;;;;;2.55;1.25;;;;;;;16.01;53.02;94835.56;5102885;28;20288;-71
2022/10/14 09:28:36;;;;;;;1.73;1.10;;;;;;;15.97;53.13;94830.03;5106905;28;20228;-72
2022/10/14 09:31:09;;;;;;;1.13;0.85;;;;;;;15.88;51.95;94825.91;5107255;28;20664;-72
2022/10/14 09:33:38;;;;;;;2.30;2.00;;;;;;;16.19;51.67;94825.81;5106817;28;20201;-72
2022/10/14 09:36:13;;;;;;;3.55;1.52;;;;;;;16.30;52.09;94820.56;5087125;28;20214;-72
2022/10/14 09:38:42;;;;;;;3.88;2.45;;;;;;;16.03;52.24;94819.59;5101748;28;20197;-72
2022/10/14 09:41:18;;;;;;;2.30;1.58;;;;;;;16.01;51.85;94819.16;5107757;28;20210;-72
2022/10/14 09:44:21;;;;;;;3.00;1.23;;;;;;;16.34;51.66;94822.22;5108301;28;20530;-72
2022/10/14 09:46:56;;;;;;;2.25;1.55;;;;;;;16.50;50.73;94818.66;5110934;28;20207;-70
2022/10/14 09:49:34;;;;;;;2.83;1.50;;;;;;;16.28;49.21;94826.38;5111388;28;20197;-72
2022/10/14 09:52:03;;;;;;;1.73;1.23;;;;;;;16.16;50.20;94821.06;5092945;28;20194;-71
2022/10/14 09:54:32;;;;;;;1.35;1.23;;;;;;;16.31;50.75;94822.94;5091138;28;20818;-71
2022/10/14 09:57:07;;;;;;;4.28;1.30;;;;;;;16.23;50.60;94817.69;5090295;28;20210;-73
2022/10/14 09:59:52;;;;;;;2.03;1.40;;;;;;;16.49;51.48;94819.78;5103862;28;20205;-71
2022/10/14 10:02:26;;;;;;;1.05;0.70;;;;;;;16.46;51.48;94817.78;5110678;28;20241;-72
2022/10/14 10:04:56;;;;;;;3.28;1.75;;;;;;;16.46;51.99;94817.78;5110313;28;20198;-72
2022/10/14 10:07:33;;;;;;;1.90;1.40;;;;;;;16.35;51.94;94826.56;5110713;28;20283;-72
2022/10/14 10:10:04;;;;;;;5.38;2.08;;;;;;;16.07;51.93;94825.94;5110941;28;20255;-72
2022/10/14 10:12:34;;;;;;;3.05;2.30;;;;;;;16.34;52.11;94815.97;5110775;28;20197;-72
2022/10/14 10:15:07;;;;;;;3.55;2.25;;;;;;;16.28;50.60;94818.19;5103836;28;20217;-72
2022/10/14 10:17:40;;;;;;;4.40;2.20;;;;;;;16.27;49.76;94816.59;5090143;28;20641;-71
2022/10/14 10:20:19;;;;;;;1.58;1.02;;;;;;;16.19;50.27;94814.88;5098749;28;20202;-71
2022/10/14 10:22:50;;;;;;;1.55;1.08;;;;;;;16.20;50.13;94819.19;5096401;28;20307;-72
2022/10/14 10:25:26;;;;;;;1.85;1.40;;;;;;;16.24;50.34;94805.63;5100420;28;20204;-72
2022/10/14 10:27:54;;;;;;;2.08;1.52;;;;;;;16.46;50.66;94802.16;5110236;28;20206;-71
2022/10/14 10:30:26;;;;;;;1.42;0.98;;;;;;;16.40;49.94;94802.81;5105556;28;20199;-71
2022/10/14 10:33:17;;;;;;;7.05;3.90;;;;;;;16.49;50.25;94801.44;5078044;28;20194;-72
2022/10/14 10:36:12;;;;;;;1.67;1.42;;;;;;;16.76;48.90;94783.22;5090964;28;20230;-71
2022/10/14 10:38:48;;;;;;;3.47;1.48;;;;;;;17.04;48.80;94783.75;5105009;28;20292;-71
2022/10/14 10:41:29;;;;;;;1.95;1.35;;;;;;;16.90;49.03;94788.97;5091118;28;20279;-71
2022/10/14 10:44:24;;;;;;;2.40;1.70;;;;;;;16.69;49.86;94783.09;5107479;28;20197;-71
2022/10/14 10:47:04;;;;;;;3.72;2.67;;;;;;;16.98;49.69;94768.75;5109892;28;20598;-71
2022/10/14 10:49:52;;;;;;;4.55;2.67;;;;;;;16.91;49.52;94773.34;5090972;28;20290;-71
2022/10/14 10:52:29;;;;;;;4.82;1.98;;;;;;;17.03;49.98;94776.69;5110667;28;20190;-71
2022/10/14 10:55:04;;;;;;;1.13;0.80;;;;;;;16.98;49.22;94774.25;5110496;28;20214;-71
2022/10/14 10:57:45;;;;;;;2.22;1.30;;;;;;;16.98;48.32;94773.44;5110816;28;20253;-70
2022/10/14 11:00:15;;;;;;;1.52;1.05;;;;;;;16.60;46.98;94774.28;5110004;28;20308;-71
2022/10/14 11:02:55;;;;;;;1.38;1.05;;;;;;;16.39;47.13;94784.81;5110993;28;20237;-70
2022/10/14 11:05:36;;;;;;;1.48;1.23;;;;;;;16.34;47.83;94773.03;5111001;28;20198;-72
2022/10/14 11:13:56;;;;;;;2.58;1.00;;;;;;;16.20;45.48;94759.06;5110916;28;20237;-71
2022/10/14 11:16:30;;;;;;;1.13;0.90;;;;;;;16.21;45.50;94757.13;5097584;28;20220;-71
2022/10/14 11:19:04;;;;;;;2.20;1.00;;;;;;;16.10;44.38;94756.91;5110471;28;20689;-71
2022/10/14 11:21:42;;;;;;;0.70;0.60;;;;;;;16.22;41.75;94770.44;5104074;28;21085;-71
2022/10/14 11:24:19;;;;;;;3.45;1.30;;;;;;;16.65;42.09;94754.88;5089144;28;20735;-72
2022/10/14 11:26:59;;;;;;;1.17;0.80;;;;;;;16.61;43.71;94738.38;5087852;28;20656;-71
2022/10/14 11:30:06;;;;;;;0.52;0.50;;;;;;;16.57;44.88;94739.44;5088913;28;20630;-70
2022/10/14 11:32:42;;;;;;;0.95;0.60;;;;;;;16.65;43.50;94733.81;5091033;28;20251;-71
2022/10/14 11:35:22;;;;;;;1.42;0.60;;;;;;;16.64;43.73;94723.22;5098569;28;20221;-72
2022/10/14 11:38:02;;;;;;;0.65;0.50;;;;;;;16.90;43.51;94731.50;5076643;28;20194;-71
2022/10/14 11:40:38;;;;;;;0.50;0.50;;;;;;;16.75;42.26;94726.13;5082639;28;20194;-71
2022/10/14 11:43:18;;;;;;;0.75;0.70;;;;;;;16.61;42.90;94726.66;5079499;28;20187;-72
2022/10/14 11:45:52;;;;;;;0.50;0.40;;;;;;;16.58;40.74;94721.88;5089833;28;20202;-72
2022/10/14 11:48:27;;;;;;;0.43;0.43;;;;;;;16.66;39.55;94712.72;5089667;28;21038;-72
2022/10/14 11:50:59;;;;;;;0.85;0.60;;;;;;;16.67;39.35;94714.28;5081350;28;20193;-71
2022/10/14 11:53:39;;;;;;;1.50;0.80;;;;;;;16.87;39.18;94706.81;5089801;28;20191;-71
2022/10/14 11:56:19;;;;;;;0.47;0.40;;;;;;;16.91;38.92;94708.44;5083207;28;20472;-71